Time;durP1;ratioP1;P1;durP2;ratioP2;P2;SDS_P1;SDS_P2;PMS_P1;PMS_P2;Temp;Humidity;BMP_temperature;BMP_pressure;BME280_temperature;BME280_humidity;BME280_pressure;Samples;Min_cycle;Max_cycle;Signal;HPM_P1;HPM_P2
2023/08/08 00:01:01;;;;;;;6.57;2.35;;;13.50;99.90;;;;;;5048547;28;20464;-82
2023/08/08 00:03:27;;;;;;;2.95;1.70;;;13.50;99.90;;;;;;5031737;28;20039;-82
2023/08/08 00:05:52;;;;;;;5.03;1.80;;;13.50;99.90;;;;;;5031683;28;20378;-82
2023/08/08 00:08:18;;;;;;;8.20;1.67;;;13.50;99.90;;;;;;5042102;28;20057;-79
2023/08/08 00:10:44;;;;;;;3.40;1.95;;;13.50;99.90;;;;;;5048817;28;20416;-82
2023/08/08 00:13:09;;;;;;;4.40;1.52;;;13.60;99.90;;;;;;5044807;28;20051;-82
2023/08/08 00:15:36;;;;;;;5.20;2.30;;;13.60;99.90;;;;;;5038829;28;20065;-82
2023/08/08 00:18:01;;;;;;;3.47;2.08;;;13.60;99.90;;;;;;5041154;28;20069;-80
2023/08/08 00:20:27;;;;;;;4.93;1.85;;;14.50;99.90;;;;;;5048569;28;20040;-82
2023/08/08 00:22:54;;;;;;;5.68;1.65;;;13.60;99.90;;;;;;5048075;28;20488;-82
2023/08/08 00:25:19;;;;;;;8.85;2.17;;;13.90;99.90;;;;;;5037683;28;20044;-82
2023/08/08 00:27:45;;;;;;;5.07;1.75;;;13.70;99.90;;;;;;5031008;28;20034;-82
2023/08/08 00:30:13;;;;;;;6.35;2.00;;;14.10;99.90;;;;;;5034686;28;20057;-82
2023/08/08 00:32:39;;;;;;;4.28;1.85;;;13.70;99.90;;;;;;5048607;28;20072;-82
2023/08/08 00:35:04;;;;;;;2.47;1.75;;;13.70;99.90;;;;;;5048426;28;20082;-82
2023/08/08 00:37:30;;;;;;;5.88;1.92;;;13.70;99.90;;;;;;5026576;28;20066;-82
2023/08/08 00:39:56;;;;;;;4.03;1.95;;;13.80;99.90;;;;;;5034598;28;20093;-81
2023/08/08 00:42:21;;;;;;;4.82;1.85;;;13.70;99.90;;;;;;5044905;28;20409;-83
2023/08/08 00:44:47;;;;;;;6.65;2.00;;;13.70;99.90;;;;;;5051577;28;20464;-82
2023/08/08 00:47:13;;;;;;;5.70;1.70;;;13.70;99.90;;;;;;5047453;28;20051;-80
2023/08/08 00:49:39;;;;;;;6.72;1.85;;;13.70;99.90;;;;;;5033770;28;20030;-82
2023/08/08 00:52:06;;;;;;;2.85;1.92;;;13.80;99.90;;;;;;5034458;28;20443;-82
2023/08/08 00:54:32;;;;;;;4.32;2.10;;;13.80;99.90;;;;;;5025999;28;20030;-82
2023/08/08 00:56:57;;;;;;;2.17;1.65;;;13.80;99.90;;;;;;5033798;28;20054;-82
2023/08/08 00:59:23;;;;;;;4.60;1.92;;;13.80;99.90;;;;;;5044284;28;20049;-80
2023/08/08 01:01:49;;;;;;;5.18;2.28;;;13.70;99.90;;;;;;5051764;28;20028;-82
2023/08/08 01:04:16;;;;;;;5.47;2.30;;;13.80;99.90;;;;;;5045940;28;20085;-82
2023/08/08 01:07:22;;;;;;;3.35;1.50;;;14.40;99.90;;;;;;5034448;28;20042;-82
2023/08/08 01:09:54;;;;;;;8.68;2.83;;;13.70;99.90;;;;;;5038982;28;20057;-81
2023/08/08 01:12:20;;;;;;;3.40;2.25;;;13.70;99.90;;;;;;5041498;28;20590;-81
2023/08/08 01:14:46;;;;;;;5.20;1.88;;;13.70;99.90;;;;;;5051337;28;20464;-80
2023/08/08 01:17:12;;;;;;;5.45;2.50;;;13.70;99.90;;;;;;5049045;28;20127;-80
2023/08/08 01:19:39;;;;;;;8.02;2.55;;;13.70;99.90;;;;;;5033749;28;20383;-81
2023/08/08 01:22:08;;;;;;;7.75;2.13;;;13.70;99.90;;;;;;5033597;28;20045;-80
2023/08/08 01:24:37;;;;;;;3.83;2.28;;;13.70;99.90;;;;;;5050126;28;20036;-81
2023/08/08 01:27:04;;;;;;;3.08;2.08;;;13.60;99.90;;;;;;5051661;28;20046;-81
2023/08/08 01:29:30;;;;;;;4.00;1.92;;;13.60;99.90;;;;;;5037415;28;20097;-81
2023/08/08 01:31:55;;;;;;;5.82;2.70;;;13.60;99.90;;;;;;5033106;28;20080;-81
2023/08/08 01:34:21;;;;;;;5.13;2.13;;;13.60;99.90;;;;;;5040608;28;20031;-81
2023/08/08 01:37:04;;;;;;;6.80;2.10;;;13.60;99.90;;;;;;5051159;28;20032;-81
2023/08/08 01:39:31;;;;;;;3.70;2.28;;;13.60;99.90;;;;;;5037790;28;20501;-81
2023/08/08 01:41:59;;;;;;;5.78;2.45;;;13.60;99.90;;;;;;5032297;28;20045;-81
2023/08/08 01:44:26;;;;;;;6.10;2.15;;;13.60;99.90;;;;;;5042859;28;20047;-81
2023/08/08 01:46:55;;;;;;;6.63;2.75;;;13.60;99.90;;;;;;5050034;28;20500;-81
2023/08/08 01:49:20;;;;;;;5.20;2.30;;;13.50;99.90;;;;;;5043721;28;20051;-81
2023/08/08 01:51:48;;;;;;;4.68;2.35;;;13.50;99.90;;;;;;5033352;28;20409;-81
2023/08/08 01:54:13;;;;;;;8.35;2.30;;;14.90;99.90;;;;;;5033438;28;20534;-81
2023/08/08 01:56:39;;;;;;;7.20;2.05;;;13.50;99.90;;;;;;5051062;28;20068;-81
2023/08/08 01:59:05;;;;;;;5.15;2.53;;;13.50;99.90;;;;;;5056607;28;20085;-81
2023/08/08 02:01:30;;;;;;;4.70;2.45;;;13.50;99.90;;;;;;5044083;28;20047;-81
2023/08/08 02:03:56;;;;;;;11.98;2.67;;;13.50;99.90;;;;;;5059534;28;20040;-81
2023/08/08 02:06:21;;;;;;;7.43;2.45;;;13.50;99.90;;;;;;5059601;28;20042;-81
2023/08/08 02:08:47;;;;;;;5.20;2.20;;;13.50;99.90;;;;;;5050850;28;20058;-81
2023/08/08 02:11:13;;;;;;;4.40;2.20;;;13.50;99.90;;;;;;5050497;28;20040;-81
2023/08/08 02:13:38;;;;;;;4.03;2.40;;;13.50;99.90;;;;;;5031192;28;20045;-81
2023/08/08 02:16:04;;;;;;;6.68;2.90;;;13.60;99.90;;;;;;5033119;28;20468;-81
2023/08/08 02:18:29;;;;;;;3.72;2.72;;;13.60;99.90;;;;;;5043527;28;20053;-81
2023/08/08 02:20:55;;;;;;;7.78;3.10;;;13.60;99.90;;;;;;5049513;28;20048;-81
2023/08/08 02:23:21;;;;;;;8.23;2.90;;;13.60;99.90;;;;;;5045518;28;20109;-81
2023/08/08 02:25:46;;;;;;;8.50;2.63;;;13.60;99.90;;;;;;5032886;28;20386;-81
2023/08/08 02:28:12;;;;;;;5.22;2.05;;;13.60;99.90;;;;;;5032069;28;20046;-81
2023/08/08 02:30:38;;;;;;;6.75;2.30;;;13.60;99.90;;;;;;5048687;28;20076;-81
2023/08/08 02:33:04;;;;;;;6.95;2.65;;;13.60;99.90;;;;;;5050062;28;20531;-80
2023/08/08 02:35:29;;;;;;;7.68;2.40;;;13.60;99.90;;;;;;5039865;28;20116;-80
2023/08/08 02:37:56;;;;;;;7.70;2.08;;;13.60;99.90;;;;;;5032267;28;20477;-81
2023/08/08 02:40:23;;;;;;;6.50;2.47;;;13.60;99.90;;;;;;5035514;28;20049;-80
2023/08/08 02:42:49;;;;;;;6.32;1.80;;;13.70;99.90;;;;;;5049415;28;20081;-81
2023/08/08 02:45:15;;;;;;;3.92;2.10;;;14.70;99.90;;;;;;5049670;28;20476;-81
2023/08/08 02:47:40;;;;;;;7.15;2.38;;;13.70;99.90;;;;;;5032263;28;20060;-81
2023/08/08 02:50:06;;;;;;;3.63;2.25;;;13.70;99.90;;;;;;5031674;28;20042;-81
2023/08/08 02:52:32;;;;;;;5.60;2.33;;;13.70;99.90;;;;;;5042249;28;20086;-80
2023/08/08 02:54:57;;;;;;;7.43;2.70;;;13.70;99.90;;;;;;5048132;28;20051;-80
2023/08/08 02:57:23;;;;;;;9.55;2.45;;;14.40;99.90;;;;;;5044040;28;20056;-81
2023/08/08 02:59:49;;;;;;;6.10;2.63;;;13.60;99.90;;;;;;5031739;28;20039;-82
2023/08/08 03:02:14;;;;;;;6.22;2.53;;;14.30;99.90;;;;;;5032117;28;20500;-82
2023/08/08 03:04:40;;;;;;;5.43;2.50;;;13.60;99.90;;;;;;5045799;28;20032;-82
2023/08/08 03:07:06;;;;;;;5.93;2.50;;;13.60;99.90;;;;;;5049628;28;20036;-82
2023/08/08 03:09:31;;;;;;;7.82;2.53;;;13.60;99.90;;;;;;5040996;28;20079;-82
2023/08/08 03:11:57;;;;;;;6.20;2.08;;;13.60;99.90;;;;;;5030212;28;20038;-81
2023/08/08 03:14:22;;;;;;;8.65;2.22;;;13.60;99.90;;;;;;5033476;28;20192;-82
2023/08/08 03:16:48;;;;;;;6.10;2.17;;;13.60;99.90;;;;;;5048926;28;20036;-82
2023/08/08 03:19:13;;;;;;;7.75;2.30;;;13.60;99.90;;;;;;5049162;28;20036;-81
2023/08/08 03:21:39;;;;;;;5.35;1.75;;;13.60;99.90;;;;;;5036001;28;20136;-82
2023/08/08 03:24:05;;;;;;;3.83;1.00;;;13.50;99.90;;;;;;5030828;28;20627;-82
2023/08/08 03:26:30;;;;;;;4.35;1.00;;;14.30;99.90;;;;;;5038669;28;20390;-82
2023/08/08 03:28:56;;;;;;;4.72;1.20;;;13.50;99.90;;;;;;5049568;28;20079;-82
2023/08/08 03:31:22;;;;;;;6.47;1.55;;;13.50;99.90;;;;;;5048300;28;20044;-82
2023/08/08 03:33:47;;;;;;;6.72;1.50;;;14.60;99.90;;;;;;5031332;28;20064;-82
2023/08/08 03:36:14;;;;;;;5.70;1.23;;;13.40;99.90;;;;;;5031619;28;20038;-82
2023/08/08 03:38:40;;;;;;;6.15;1.40;;;13.40;99.90;;;;;;5043882;28;20050;-81
2023/08/08 03:41:06;;;;;;;6.50;1.33;;;13.40;99.90;;;;;;5049116;28;20028;-82
2023/08/08 03:43:31;;;;;;;7.45;1.58;;;13.40;99.90;;;;;;5042303;28;20048;-81
2023/08/08 03:45:57;;;;;;;3.72;1.33;;;13.40;99.90;;;;;;5031145;28;20039;-81
2023/08/08 03:48:23;;;;;;;5.38;1.52;;;13.80;99.90;;;;;;5035257;28;20070;-79
2023/08/08 03:50:48;;;;;;;4.05;1.42;;;13.30;99.90;;;;;;5035098;28;20039;-81
2023/08/08 03:53:14;;;;;;;5.88;2.38;;;14.60;99.90;;;;;;5041716;28;20093;-80
2023/08/08 03:55:40;;;;;;;4.28;1.38;;;13.30;99.90;;;;;;5048669;28;20046;-81
2023/08/08 03:58:05;;;;;;;4.68;2.05;;;13.30;99.90;;;;;;5049009;28;20040;-80
2023/08/08 04:00:31;;;;;;;6.47;1.88;;;13.30;99.90;;;;;;5043359;28;20125;-81
2023/08/08 04:02:57;;;;;;;5.05;2.15;;;13.30;99.90;;;;;;5031379;28;20401;-80
2023/08/08 04:05:23;;;;;;;6.90;1.90;;;13.30;99.90;;;;;;5072429;28;20036;-81
2023/08/08 04:07:49;;;;;;;9.68;2.42;;;14.00;99.90;;;;;;5031752;28;20046;-81
2023/08/08 04:10:15;;;;;;;6.13;1.77;;;13.30;99.90;;;;;;5025241;28;20186;-81
2023/08/08 04:12:40;;;;;;;9.10;1.85;;;13.40;99.90;;;;;;5052677;28;20042;-81
2023/08/08 04:15:06;;;;;;;8.70;1.67;;;13.40;99.90;;;;;;5053628;28;20068;-82
2023/08/08 04:17:32;;;;;;;6.57;2.20;;;13.40;99.90;;;;;;5048008;28;20484;-81
2023/08/08 04:19:58;;;;;;;4.20;1.67;;;13.40;99.90;;;;;;5033669;28;20053;-81
2023/08/08 04:22:23;;;;;;;8.85;1.63;;;13.40;99.90;;;;;;5034270;28;20050;-81
2023/08/08 04:24:49;;;;;;;6.55;1.65;;;13.40;99.90;;;;;;5050673;28;20036;-81
2023/08/08 04:27:15;;;;;;;4.35;1.75;;;13.40;99.90;;;;;;5051777;28;20453;-81
2023/08/08 04:29:40;;;;;;;8.38;1.83;;;13.40;99.90;;;;;;5043189;28;20391;-81
2023/08/08 04:32:06;;;;;;;7.30;2.55;;;13.40;99.90;;;;;;5034587;28;20423;-81
2023/08/08 04:34:32;;;;;;;6.03;2.00;;;13.30;99.90;;;;;;5036577;28;20046;-81
2023/08/08 04:36:57;;;;;;;10.07;2.65;;;14.50;99.90;;;;;;5051062;28;20062;-81
2023/08/08 04:39:23;;;;;;;4.78;2.05;;;13.30;99.90;;;;;;5052168;28;20089;-81
2023/08/08 04:41:48;;;;;;;6.97;2.05;;;13.30;99.90;;;;;;5037219;28;20050;-81
2023/08/08 04:44:14;;;;;;;5.05;1.83;;;13.30;99.90;;;;;;5033957;28;20050;-81
2023/08/08 04:46:40;;;;;;;7.60;2.10;;;13.20;99.90;;;;;;5041891;28;20039;-81
2023/08/08 04:49:05;;;;;;;6.82;1.90;;;13.30;99.90;;;;;;5051838;28;20036;-81
2023/08/08 04:51:31;;;;;;;7.40;1.73;;;13.30;99.90;;;;;;5051502;28;20169;-81
2023/08/08 04:53:57;;;;;;;6.43;1.60;;;14.00;99.90;;;;;;5034032;28;20046;-81
2023/08/08 04:56:22;;;;;;;8.93;2.50;;;13.20;99.90;;;;;;5033837;28;20103;-81
2023/08/08 04:58:48;;;;;;;6.20;1.85;;;13.40;99.90;;;;;;5046480;28;20405;-81
2023/08/08 05:01:15;;;;;;;5.05;1.20;;;13.20;99.90;;;;;;5050937;28;20051;-81
2023/08/08 05:03:41;;;;;;;10.10;1.48;;;13.20;99.90;;;;;;5044273;28;20052;-81
2023/08/08 05:06:07;;;;;;;9.45;1.83;;;13.30;99.90;;;;;;5034084;28;20045;-81
2023/08/08 05:08:32;;;;;;;5.85;1.50;;;13.20;99.90;;;;;;5034616;28;20469;-81
2023/08/08 05:10:58;;;;;;;7.25;1.63;;;13.20;99.90;;;;;;5033694;28;20530;-81
2023/08/08 05:13:24;;;;;;;2.97;1.40;;;13.20;99.90;;;;;;5032665;28;20092;-81
2023/08/08 05:15:49;;;;;;;9.25;1.33;;;13.20;99.90;;;;;;5045872;28;20046;-81
2023/08/08 05:18:15;;;;;;;4.05;1.10;;;13.20;99.90;;;;;;5050981;28;20449;-81
2023/08/08 05:20:41;;;;;;;7.60;1.55;;;13.20;99.90;;;;;;5046161;28;20128;-81
2023/08/08 05:23:06;;;;;;;7.65;1.67;;;13.20;99.90;;;;;;5032623;28;20085;-81
2023/08/08 05:25:32;;;;;;;6.82;1.45;;;13.20;99.90;;;;;;5035212;28;20046;-81
2023/08/08 05:27:57;;;;;;;11.75;1.50;;;13.30;99.90;;;;;;5050217;28;20481;-81
2023/08/08 05:30:23;;;;;;;4.78;1.48;;;13.30;99.90;;;;;;5050413;28;20048;-81
2023/08/08 05:32:49;;;;;;;12.07;1.10;;;13.30;99.90;;;;;;5041475;28;20047;-81
2023/08/08 05:35:15;;;;;;;6.43;1.33;;;13.30;99.90;;;;;;5033735;28;20467;-81
2023/08/08 05:37:40;;;;;;;4.43;1.30;;;13.30;99.90;;;;;;5035582;28;20554;-81
2023/08/08 05:40:06;;;;;;;5.63;1.08;;;13.40;99.90;;;;;;5059180;28;20032;-81
2023/08/08 05:42:32;;;;;;;4.22;0.98;;;13.40;99.90;;;;;;5061306;28;20127;-81
2023/08/08 05:44:58;;;;;;;8.95;1.77;;;14.00;99.90;;;;;;5036457;28;20091;-81
2023/08/08 05:47:24;;;;;;;4.60;1.15;;;13.50;99.90;;;;;;5033969;28;20150;-81
2023/08/08 05:49:50;;;;;;;6.72;1.63;;;13.50;99.90;;;;;;5042848;28;20541;-81
2023/08/08 05:52:15;;;;;;;4.15;1.05;;;13.60;99.90;;;;;;5049702;28;20059;-82
2023/08/08 05:54:41;;;;;;;5.57;1.13;;;13.60;99.90;;;;;;5048128;28;20132;-82
2023/08/08 05:57:06;;;;;;;8.82;1.48;;;13.60;99.90;;;;;;5033482;28;20211;-82
2023/08/08 05:59:32;;;;;;;6.13;1.40;;;14.10;99.90;;;;;;5033800;28;20121;-82
2023/08/08 06:01:58;;;;;;;3.58;1.00;;;13.90;99.90;;;;;;5047261;28;20178;-82
2023/08/08 06:04:24;;;;;;;5.30;1.10;;;13.80;99.90;;;;;;5050522;28;20401;-80
2023/08/08 06:06:50;;;;;;;5.75;1.35;;;13.90;99.90;;;;;;5041981;28;20047;-80
2023/08/08 06:09:16;;;;;;;4.47;0.85;;;14.00;99.90;;;;;;5033271;28;20410;-81
2023/08/08 06:11:42;;;;;;;6.40;1.20;;;14.00;99.90;;;;;;5034926;28;20050;-81
2023/08/08 06:14:08;;;;;;;4.35;0.90;;;14.10;99.90;;;;;;5050675;28;20104;-81
2023/08/08 06:16:34;;;;;;;8.75;1.00;;;14.10;99.90;;;;;;5050461;28;20040;-82
2023/08/08 06:18:59;;;;;;;10.85;1.08;;;14.40;99.90;;;;;;5037154;28;20499;-82
2023/08/08 06:21:25;;;;;;;7.82;1.17;;;14.30;99.90;;;;;;5032029;28;20061;-81
2023/08/08 06:23:54;;;;;;;4.50;0.90;;;14.30;99.90;;;;;;5040523;28;20047;-82
2023/08/08 06:26:21;;;;;;;6.03;1.20;;;14.40;99.90;;;;;;5050571;28;20090;-82
2023/08/08 06:28:47;;;;;;;4.88;0.95;;;14.50;99.90;;;;;;5047245;28;20076;-81
2023/08/08 06:31:13;;;;;;;9.45;1.13;;;14.50;99.90;;;;;;5033897;28;20410;-81
2023/08/08 06:33:38;;;;;;;7.93;1.00;;;14.50;99.90;;;;;;5035113;28;20046;-81
2023/08/08 06:36:04;;;;;;;5.15;1.10;;;14.60;99.90;;;;;;5049477;28;20101;-82
2023/08/08 06:38:33;;;;;;;7.50;2.10;;;14.70;99.90;;;;;;5049560;28;20036;-82
2023/08/08 06:41:00;;;;;;;8.13;1.20;;;14.70;99.90;;;;;;5039048;28;20051;-82
2023/08/08 06:43:25;;;;;;;6.65;1.15;;;14.80;99.90;;;;;;5032593;28;20058;-81
2023/08/08 06:45:51;;;;;;;4.32;1.40;;;14.80;99.90;;;;;;5038586;28;20034;-82
2023/08/08 06:48:17;;;;;;;4.38;0.98;;;15.00;99.90;;;;;;5051204;28;20043;-81
2023/08/08 06:50:43;;;;;;;9.93;1.08;;;14.90;99.90;;;;;;5052380;28;20036;-81
2023/08/08 06:53:08;;;;;;;5.38;1.00;;;14.90;99.90;;;;;;5007088;28;20032;-82
2023/08/08 06:55:34;;;;;;;8.90;1.00;;;15.00;99.90;;;;;;5049083;28;20028;-82
2023/08/08 06:58:00;;;;;;;7.88;1.33;;;15.00;99.90;;;;;;5038330;28;20520;-83
2023/08/08 07:00:27;;;;;;;4.93;1.17;;;15.10;99.90;;;;;;5033726;28;20046;-82
2023/08/08 07:02:53;;;;;;;7.28;0.98;;;15.20;99.90;;;;;;5035859;28;20042;-82
2023/08/08 07:05:19;;;;;;;5.00;1.30;;;15.30;99.90;;;;;;5032494;28;20072;-82
2023/08/08 07:07:46;;;;;;;9.52;1.10;;;15.30;99.90;;;;;;5032631;28;20078;-81
2023/08/08 07:10:12;;;;;;;8.30;1.02;;;15.40;99.90;;;;;;5025449;28;20470;-81
2023/08/08 07:12:38;;;;;;;8.00;1.30;;;15.40;99.90;;;;;;5032674;28;20478;-81
2023/08/08 07:15:07;;;;;;;5.13;0.98;;;15.50;99.90;;;;;;5044703;28;20057;-82
2023/08/08 07:17:32;;;;;;;7.57;0.60;;;15.50;99.90;;;;;;5049148;28;20040;-82
2023/08/08 07:19:58;;;;;;;3.63;0.95;;;15.50;99.90;;;;;;5041867;28;20043;-80
2023/08/08 07:22:24;;;;;;;4.97;0.80;;;15.60;99.90;;;;;;5032076;28;20057;-81
2023/08/08 07:24:50;;;;;;;4.93;0.98;;;15.70;99.90;;;;;;5073776;28;20047;-81
2023/08/08 07:27:15;;;;;;;2.80;0.45;;;15.80;99.90;;;;;;5037343;28;20043;-82
2023/08/08 07:29:41;;;;;;;7.63;1.00;;;15.80;99.90;;;;;;5042182;28;20119;-82
2023/08/08 07:32:07;;;;;;;10.63;1.60;;;15.70;99.90;;;;;;5047741;28;20038;-81
2023/08/08 07:34:32;;;;;;;4.95;0.95;;;15.80;99.90;;;;;;5049461;28;20093;-82
2023/08/08 07:36:58;;;;;;;6.50;0.88;;;15.80;99.90;;;;;;5041641;28;20432;-81
2023/08/08 07:39:25;;;;;;;6.65;1.00;;;15.80;99.90;;;;;;5031906;28;20413;-81
2023/08/08 07:41:51;;;;;;;7.65;0.70;;;15.80;99.90;;;;;;5031969;28;20121;-82
2023/08/08 07:44:16;;;;;;;5.38;1.40;;;15.90;99.90;;;;;;5073439;28;20570;-81
2023/08/08 07:46:42;;;;;;;5.50;1.38;;;15.90;99.90;;;;;;5032191;28;20049;-82
2023/08/08 07:49:09;;;;;;;11.30;1.02;;;16.00;99.90;;;;;;5043172;28;20255;-81
2023/08/08 07:51:35;;;;;;;3.85;0.95;;;15.90;99.90;;;;;;5048812;28;20040;-82
2023/08/08 07:54:00;;;;;;;4.50;0.77;;;16.00;99.90;;;;;;5008125;28;20095;-82
2023/08/08 07:56:26;;;;;;;8.07;1.13;;;16.00;99.90;;;;;;5068908;28;20046;-81
2023/08/08 07:58:52;;;;;;;6.88;0.93;;;16.10;99.90;;;;;;5032090;28;20046;-81
2023/08/08 08:01:18;;;;;;;3.88;0.73;;;16.00;99.90;;;;;;5050492;28;20048;-81
2023/08/08 08:03:44;;;;;;;7.57;1.15;;;16.00;99.90;;;;;;5048883;28;20040;-81
2023/08/08 08:06:11;;;;;;;8.43;1.30;;;16.00;99.90;;;;;;5006649;28;20442;-80
2023/08/08 08:08:37;;;;;;;4.40;1.08;;;16.60;99.90;;;;;;5031172;28;20058;-79
2023/08/08 08:11:03;;;;;;;7.80;1.38;;;17.00;99.90;;;;;;5043793;28;20048;-82
2023/08/08 08:13:28;;;;;;;7.50;0.93;;;16.10;99.90;;;;;;5031105;28;20042;-82
2023/08/08 08:15:54;;;;;;;8.38;0.95;;;16.60;99.90;;;;;;5031450;28;20041;-81
2023/08/08 08:18:20;;;;;;;12.20;1.27;;;16.10;99.90;;;;;;5047009;28;20044;-81
2023/08/08 08:20:47;;;;;;;6.78;0.80;;;16.10;99.90;;;;;;5047993;28;20507;-82
2023/08/08 08:23:12;;;;;;;5.70;0.90;;;16.10;99.90;;;;;;5036557;28;20503;-82
2023/08/08 08:25:38;;;;;;;4.53;0.60;;;16.10;99.90;;;;;;5031600;28;20121;-82
2023/08/08 08:28:04;;;;;;;6.32;0.93;;;16.60;99.90;;;;;;5034698;28;20049;-82
2023/08/08 08:30:29;;;;;;;8.60;1.95;;;16.00;99.90;;;;;;5047630;28;20055;-81
2023/08/08 08:32:56;;;;;;;9.57;2.22;;;16.90;99.90;;;;;;5049138;28;20399;-82
2023/08/08 08:35:22;;;;;;;8.45;1.52;;;16.10;99.90;;;;;;5030538;28;20046;-81
2023/08/08 08:37:48;;;;;;;5.63;0.70;;;16.10;99.90;;;;;;5031398;28;20155;-82
2023/08/08 08:40:14;;;;;;;2.55;0.52;;;16.30;99.90;;;;;;5043055;28;20030;-81
2023/08/08 08:42:43;;;;;;;4.60;0.68;;;16.00;99.90;;;;;;5048537;28;20040;-82
2023/08/08 08:45:09;;;;;;;5.72;0.43;;;16.00;99.90;;;;;;4990158;28;20130;-82
2023/08/08 08:47:37;;;;;;;4.88;0.88;;;15.90;99.90;;;;;;5047893;28;20039;-81
2023/08/08 08:50:04;;;;;;;6.55;1.45;;;15.90;99.90;;;;;;5045985;28;20104;-79
2023/08/08 08:52:30;;;;;;;5.45;1.17;;;16.00;99.90;;;;;;5030842;28;20043;-79
2023/08/08 08:54:57;;;;;;;8.77;1.40;;;16.00;99.90;;;;;;5028965;28;20509;-82
2023/08/08 08:57:25;;;;;;;5.97;1.48;;;16.50;99.90;;;;;;5044549;28;20133;-82
2023/08/08 08:59:51;;;;;;;5.75;1.20;;;16.20;99.90;;;;;;5051867;28;20127;-80
2023/08/08 09:02:18;;;;;;;10.07;1.13;;;16.30;99.90;;;;;;5041358;28;20488;-80
2023/08/08 09:04:45;;;;;;;4.70;0.88;;;16.40;99.90;;;;;;5034322;28;20390;-81
2023/08/08 09:07:12;;;;;;;4.13;0.88;;;16.50;99.90;;;;;;5039307;28;20050;-80
2023/08/08 09:09:38;;;;;;;8.43;0.70;;;16.50;99.90;;;;;;5051370;28;20043;-82
2023/08/08 09:12:05;;;;;;;3.47;0.70;;;16.50;99.90;;;;;;5052360;28;20132;-80
2023/08/08 09:14:31;;;;;;;8.63;0.60;;;16.50;99.90;;;;;;5032690;28;20038;-79
2023/08/08 09:16:57;;;;;;;6.57;0.73;;;16.60;99.90;;;;;;5043301;28;20034;-80
2023/08/08 09:19:24;;;;;;;3.55;0.57;;;16.50;99.90;;;;;;5048323;28;20111;-81
2023/08/08 09:21:51;;;;;;;5.38;0.77;;;16.50;99.90;;;;;;5052016;28;20052;-82
2023/08/08 09:24:17;;;;;;;2.70;0.50;;;16.50;99.90;;;;;;5043701;28;20036;-82
2023/08/08 09:26:45;;;;;;;6.68;0.88;;;16.60;99.90;;;;;;5034857;28;20046;-81
2023/08/08 09:29:16;;;;;;;4.18;0.77;;;16.60;99.90;;;;;;5036824;28;20116;-82
2023/08/08 09:31:41;;;;;;;9.48;0.63;;;16.60;99.90;;;;;;5050605;28;20388;-82
2023/08/08 09:34:07;;;;;;;10.05;0.98;;;16.70;99.90;;;;;;5053607;28;20043;-80
2023/08/08 09:36:34;;;;;;;3.60;0.60;;;16.80;99.90;;;;;;5034539;28;20475;-82
2023/08/08 09:39:00;;;;;;;12.90;1.45;;;17.60;99.90;;;;;;5033715;28;20510;-83
2023/08/08 09:41:26;;;;;;;7.70;0.70;;;16.90;99.90;;;;;;5045344;28;20038;-82
2023/08/08 09:43:53;;;;;;;3.60;0.80;;;16.70;99.90;;;;;;5051322;28;20060;-82
2023/08/08 09:46:19;;;;;;;3.70;0.63;;;16.50;99.90;;;;;;5046270;28;20058;-82
2023/08/08 09:48:46;;;;;;;2.42;0.50;;;16.20;99.90;;;;;;5033396;28;20501;-81
2023/08/08 09:51:13;;;;;;;7.35;1.30;;;16.00;99.90;;;;;;5034427;28;20050;-81
2023/08/08 09:53:39;;;;;;;4.90;0.93;;;16.00;99.90;;;;;;5051051;28;20035;-81
2023/08/08 09:56:06;;;;;;;4.50;0.68;;;16.10;99.90;;;;;;5050982;28;20090;-82
2023/08/08 09:58:32;;;;;;;8.57;1.85;;;16.20;99.90;;;;;;5035055;28;20055;-82
2023/08/08 10:00:58;;;;;;;6.47;1.20;;;16.10;99.90;;;;;;5033781;28;20050;-80
2023/08/08 10:03:24;;;;;;;3.40;0.90;;;16.10;99.90;;;;;;5042951;28;20049;-81
2023/08/08 10:05:50;;;;;;;2.92;0.75;;;16.20;99.90;;;;;;5050035;28;20036;-81
2023/08/08 10:08:17;;;;;;;5.15;0.98;;;16.20;99.90;;;;;;5048769;28;20048;-82
2023/08/08 10:10:48;;;;;;;5.68;0.82;;;16.30;99.90;;;;;;5033329;28;20038;-82
2023/08/08 10:13:26;;;;;;;8.20;0.82;;;16.30;99.90;;;;;;5031301;28;20050;-82
2023/08/08 10:15:53;;;;;;;12.80;1.40;;;16.30;99.90;;;;;;5025539;28;20521;-81
2023/08/08 10:18:22;;;;;;;11.32;1.20;;;16.30;99.90;;;;;;5035828;28;20038;-81
2023/08/08 10:20:49;;;;;;;9.57;0.90;;;16.40;99.90;;;;;;5050078;28;20124;-82
2023/08/08 10:23:16;;;;;;;5.50;1.00;;;16.40;99.90;;;;;;5050187;28;20040;-82
2023/08/08 10:25:46;;;;;;;6.22;1.00;;;16.50;99.90;;;;;;5023747;28;20030;-82
2023/08/08 10:28:14;;;;;;;7.90;1.30;;;16.60;99.90;;;;;;5032905;28;20061;-83
2023/08/08 10:30:54;;;;;;;4.88;1.25;;;16.60;99.90;;;;;;5032883;28;20038;-82
2023/08/08 10:33:41;;;;;;;4.55;1.13;;;16.50;99.90;;;;;;5033545;28;20050;-81
2023/08/08 10:36:07;;;;;;;3.35;0.98;;;16.60;99.90;;;;;;5050415;28;20036;-82
2023/08/08 10:39:00;;;;;;;3.22;0.50;;;17.30;99.90;;;;;;5038922;28;20495;-81
2023/08/08 10:41:26;;;;;;;4.07;0.60;;;16.70;99.90;;;;;;5038785;28;20050;-81
2023/08/08 10:43:56;;;;;;;3.03;0.30;;;17.30;99.90;;;;;;5070508;28;20103;-83
2023/08/08 10:46:31;;;;;;;5.50;1.10;;;17.00;99.90;;;;;;5036250;28;20044;-82
2023/08/08 10:49:05;;;;;;;3.85;0.50;;;17.10;99.90;;;;;;5049747;28;20457;-82
2023/08/08 10:51:42;;;;;;;6.60;0.95;;;17.20;99.90;;;;;;5043637;28;20040;-81
2023/08/08 10:54:17;;;;;;;3.78;0.50;;;17.30;99.90;;;;;;5064204;28;20413;-81
2023/08/08 10:56:53;;;;;;;3.78;0.70;;;17.40;99.90;;;;;;5035473;28;20409;-82
2023/08/08 10:59:23;;;;;;;3.95;0.70;;;18.30;99.90;;;;;;5035862;28;20125;-82
2023/08/08 11:01:52;;;;;;;3.50;0.65;;;17.50;99.90;;;;;;5034021;28;20050;-81
2023/08/08 11:04:24;;;;;;;3.72;0.47;;;18.30;99.90;;;;;;5036244;28;20085;-80
2023/08/08 11:06:52;;;;;;;3.22;0.30;;;17.70;99.90;;;;;;5023789;28;20121;-82
2023/08/08 11:09:17;;;;;;;2.88;0.57;;;17.60;99.90;;;;;;5031824;28;20413;-81
2023/08/08 11:11:44;;;;;;;4.45;0.73;;;17.50;99.90;;;;;;5044440;28;20121;-81
2023/08/08 11:14:10;;;;;;;3.55;1.05;;;17.50;99.90;;;;;;5060230;28;20050;-81
2023/08/08 11:16:36;;;;;;;2.67;0.93;;;17.50;99.90;;;;;;5039349;28;20079;-81
2023/08/08 11:19:02;;;;;;;2.78;0.85;;;17.40;99.90;;;;;;5049518;28;20059;-81
2023/08/08 11:21:28;;;;;;;2.95;0.52;;;17.40;99.90;;;;;;5046851;28;20055;-81
2023/08/08 11:23:54;;;;;;;3.40;0.55;;;17.30;99.90;;;;;;5031344;28;20618;-80
2023/08/08 11:26:19;;;;;;;6.45;0.95;;;17.30;99.90;;;;;;5034927;28;20050;-82
2023/08/08 11:28:52;;;;;;;5.50;0.85;;;17.40;99.90;;;;;;5046253;28;20084;-81
2023/08/08 11:31:21;;;;;;;6.32;0.63;;;17.20;99.90;;;;;;5050313;28;20073;-82
2023/08/08 11:33:50;;;;;;;2.00;0.40;;;17.20;99.90;;;;;;5035893;28;20064;-84
2023/08/08 11:36:16;;;;;;;4.07;0.52;;;17.20;99.90;;;;;;5023324;28;20044;-84
2023/08/08 11:38:43;;;;;;;4.80;0.75;;;17.30;99.90;;;;;;5007659;28;20042;-85
2023/08/08 11:41:11;;;;;;;6.38;0.85;;;17.40;99.90;;;;;;5050334;28;20079;-83
2023/08/08 11:43:40;;;;;;;6.03;0.80;;;17.80;99.90;;;;;;5043519;28;20516;-83
2023/08/08 11:46:12;;;;;;;2.22;0.52;;;17.80;99.90;;;;;;5035478;28;20054;-85
2023/08/08 11:48:38;;;;;;;4.13;0.60;;;17.90;99.90;;;;;;5041602;28;20091;-81
2023/08/08 11:51:04;;;;;;;6.25;0.60;;;18.00;99.90;;;;;;5030461;28;20042;-84
2023/08/08 11:53:30;;;;;;;5.63;0.80;;;18.00;99.90;;;;;;5033312;28;20046;-84
2023/08/08 11:55:58;;;;;;;6.13;0.82;;;18.00;99.90;;;;;;5023859;28;20494;-85
2023/08/08 11:58:26;;;;;;;5.65;0.85;;;18.00;99.90;;;;;;5070552;28;20040;-83
2023/08/08 12:00:54;;;;;;;3.90;0.60;;;18.00;99.90;;;;;;5052116;28;20036;-84
2023/08/08 12:03:40;;;;;;;1.40;0.32;;;18.10;99.90;;;;;;5051377;28;20488;-84
2023/08/08 12:06:14;;;;;;;4.82;0.82;;;18.20;99.90;;;;;;5052794;28;20072;-84
2023/08/08 12:08:41;;;;;;;6.82;1.08;;;18.50;99.90;;;;;;5047154;28;20046;-82
2023/08/08 12:11:09;;;;;;;2.80;0.50;;;18.10;99.90;;;;;;5031708;28;20054;-86
2023/08/08 12:13:39;;;;;;;4.10;1.40;;;18.00;99.90;;;;;;5032263;28;20046;-80
2023/08/08 12:16:06;;;;;;;3.15;1.00;;;18.00;99.90;;;;;;5031336;28;20094;-81
2023/08/08 12:18:32;;;;;;;8.15;0.82;;;17.90;99.90;;;;;;5048264;28;20036;-81
2023/08/08 12:20:58;;;;;;;4.82;0.77;;;18.00;99.90;;;;;;5032700;28;20058;-83
2023/08/08 12:23:26;;;;;;;2.67;0.45;;;18.20;99.90;;;;;;5030962;28;20046;-81
2023/08/08 12:25:52;;;;;;;3.10;0.60;;;18.00;99.90;;;;;;5023744;28;20078;-81
2023/08/08 12:28:19;;;;;;;1.85;0.47;;;17.90;99.90;;;;;;5048666;28;20044;-82
2023/08/08 12:30:44;;;;;;;3.55;0.70;;;17.80;99.90;;;;;;5043770;28;20082;-83
2023/08/08 12:33:10;;;;;;;5.93;0.80;;;17.70;99.90;;;;;;5034374;28;20073;-83
2023/08/08 12:35:36;;;;;;;6.80;0.50;;;17.80;99.90;;;;;;5036239;28;20121;-83
2023/08/08 12:38:03;;;;;;;6.88;0.95;;;17.80;99.90;;;;;;5055200;28;20040;-82
2023/08/08 12:40:29;;;;;;;6.55;0.45;;;17.90;99.90;;;;;;5054925;28;20036;-82
2023/08/08 12:42:55;;;;;;;5.25;0.88;;;17.80;99.90;;;;;;5048613;28;20039;-82